Time;durP1;ratioP1;P1;durP2;ratioP2;P2;SDS_P1;SDS_P2;PMS_P1;PMS_P2;Temp;Humidity;BMP_temperature;BMP_pressure;BME280_temperature;BME280_humidity;BME280_pressure;Samples;Min_cycle;Max_cycle;Signal;HPM_P1;HPM_P2
2022/07/04 00:01:01;;;;;;;7.68;1.85;;;;;;;17.42;60.10;101580.66;5067684;28;20060;-63
2022/07/04 00:03:29;;;;;;;8.00;1.60;;;;;;;17.27;60.67;101582.06;5053188;28;20053;-66
2022/07/04 00:05:56;;;;;;;5.40;1.25;;;;;;;17.18;61.66;101595.22;5057550;28;20051;-63
2022/07/04 00:08:23;;;;;;;10.18;1.80;;;;;;;17.17;61.62;101607.53;5059194;28;20504;-62
2022/07/04 00:10:51;;;;;;;6.82;1.58;;;;;;;17.08;62.06;101598.41;5046795;28;20499;-62
2022/07/04 00:13:18;;;;;;;3.33;1.23;;;;;;;17.24;62.02;101601.44;5043981;28;20064;-62
2022/07/04 00:15:45;;;;;;;6.75;1.27;;;;;;;17.32;61.10;101600.53;5066056;28;20500;-62
2022/07/04 00:18:13;;;;;;;7.25;1.33;;;;;;;17.40;60.37;101599.69;5061505;28;20045;-64
2022/07/04 00:20:40;;;;;;;6.38;1.38;;;;;;;17.57;61.19;101600.41;5069569;28;20067;-64
2022/07/04 00:23:08;;;;;;;7.80;1.55;;;;;;;18.11;59.49;101606.03;5061511;28;20424;-63
2022/07/04 00:25:35;;;;;;;6.40;1.63;;;;;;;17.90;58.99;101595.69;5047652;28;20064;-63
2022/07/04 00:28:02;;;;;;;5.88;1.42;;;;;;;18.13;59.48;101590.59;5071631;28;20052;-63
2022/07/04 00:30:30;;;;;;;6.63;1.80;;;;;;;18.67;58.11;101591.34;5075006;28;20052;-61
2022/07/04 00:32:57;;;;;;;6.05;1.55;;;;;;;18.39;57.25;101593.94;5057151;28;20071;-63
2022/07/04 00:35:25;;;;;;;3.65;1.25;;;;;;;18.48;56.42;101599.44;5074995;28;20048;-62
2022/07/04 00:37:52;;;;;;;4.55;1.10;;;;;;;18.71;58.18;101598.66;5085612;28;20057;-62
2022/07/04 00:40:19;;;;;;;6.05;1.38;;;;;;;18.71;56.76;101609.00;5051854;28;20053;-63
2022/07/04 00:42:47;;;;;;;4.60;1.17;;;;;;;18.17;57.16;101596.28;5061523;28;20399;-62
2022/07/04 00:45:14;;;;;;;9.00;2.03;;;;;;;17.98;58.29;101605.97;5074938;28;20060;-63
2022/07/04 00:47:41;;;;;;;8.32;1.85;;;;;;;17.90;59.40;101609.63;5069962;28;20409;-64
2022/07/04 00:50:09;;;;;;;8.68;1.52;;;;;;;17.94;58.65;101607.00;5061045;28;20048;-64
2022/07/04 00:52:36;;;;;;;5.82;1.20;;;;;;;17.50;59.69;101602.13;5074595;28;20052;-63
2022/07/04 00:55:04;;;;;;;4.90;1.40;;;;;;;17.75;60.05;101607.47;5073897;28;20057;-62
2022/07/04 00:57:31;;;;;;;6.35;1.42;;;;;;;18.20;58.29;101598.41;5074669;28;20060;-63
2022/07/04 00:59:58;;;;;;;8.57;1.60;;;;;;;17.48;60.14;101602.44;5078865;28;20049;-62
2022/07/04 01:02:26;;;;;;;6.55;1.52;;;;;;;17.24;60.48;101599.47;5068161;28;20057;-63
2022/07/04 01:04:53;;;;;;;6.20;1.65;;;;;;;17.74;60.88;101599.47;5065624;28;20055;-63
2022/07/04 01:07:21;;;;;;;8.32;1.77;;;;;;;17.90;59.20;101601.28;5066246;28;20057;-62
2022/07/04 01:09:48;;;;;;;5.57;1.38;;;;;;;17.65;58.53;101604.28;5045418;28;20526;-62
2022/07/04 01:12:28;;;;;;;4.30;1.10;;;;;;;17.37;58.56;101605.91;5039762;28;20048;-64
2022/07/04 01:14:56;;;;;;;4.90;1.13;;;;;;;17.38;60.54;101600.00;5063117;28;20181;-62
2022/07/04 01:17:23;;;;;;;7.03;1.55;;;;;;;17.29;58.85;101604.84;5067548;28;20057;-63
2022/07/04 01:19:50;;;;;;;4.07;1.15;;;;;;;17.04;59.64;101613.31;5053102;28;20492;-63
2022/07/04 01:22:19;;;;;;;4.85;1.10;;;;;;;17.51;59.03;101604.56;5065507;28;20071;-63
2022/07/04 01:24:46;;;;;;;4.80;1.20;;;;;;;18.02;59.20;101608.91;5082667;28;20049;-63
2022/07/04 01:27:15;;;;;;;7.90;1.23;;;;;;;17.32;58.80;101609.72;5053144;28;20063;-63
2022/07/04 01:29:42;;;;;;;5.82;1.10;;;;;;;17.10;59.62;101612.00;5055829;28;20396;-62
2022/07/04 01:32:10;;;;;;;3.95;1.08;;;;;;;17.02;61.33;101602.53;5039273;28;20079;-64
2022/07/04 01:34:38;;;;;;;6.47;1.20;;;;;;;17.65;58.84;101616.25;5067653;28;20624;-63
2022/07/04 01:37:10;;;;;;;4.50;1.10;;;;;;;17.40;61.18;101608.84;5059242;28;20049;-63
2022/07/04 01:39:38;;;;;;;3.97;1.10;;;;;;;18.22;59.93;101604.47;5074276;28;20047;-64
2022/07/04 01:42:05;;;;;;;6.50;1.30;;;;;;;18.09;58.37;101603.59;5076193;28;20056;-63
2022/07/04 01:44:33;;;;;;;4.60;1.20;;;;;;;18.34;58.96;101602.50;5088019;28;20061;-61
2022/07/04 01:47:01;;;;;;;5.47;1.13;;;;;;;18.01;58.74;101604.47;5071521;28;20063;-63
2022/07/04 01:49:28;;;;;;;3.30;1.17;;;;;;;17.81;60.75;101602.53;5063172;28;20431;-63
2022/07/04 01:51:56;;;;;;;2.83;0.98;;;;;;;17.73;59.66;101601.44;5073654;28;20064;-64
2022/07/04 01:54:24;;;;;;;5.40;1.45;;;;;;;17.35;60.74;101602.66;5073869;28;20052;-62
2022/07/04 01:56:52;;;;;;;3.88;1.45;;;;;;;17.11;61.17;101597.72;5066120;28;20049;-63
2022/07/04 02:01:29;;;;;;;4.18;1.10;;;;;;;16.88;62.06;101601.13;5068257;28;20758;-62
2022/07/04 02:02:06;;;;;;;7.15;1.40;;;;;;;16.71;63.19;101597.25;5054527;28;20068;-63
2022/07/04 02:04:37;;;;;;;4.00;1.10;;;;;;;17.36;61.22;101598.72;5059085;28;20049;-62
2022/07/04 02:07:04;;;;;;;4.55;1.50;;;;;;;16.98;62.43;101589.63;5040484;28;20433;-63
2022/07/04 02:09:32;;;;;;;5.78;1.38;;;;;;;16.76;62.83;101597.09;5062652;28;20063;-64
2022/07/04 02:14:45;;;;;;;3.83;1.35;;;;;;;17.10;63.20;101596.09;5062682;28;20063;-62
2022/07/04 02:17:12;;;;;;;5.68;1.30;;;;;;;17.70;62.07;101587.34;5029793;28;20064;-63
2022/07/04 02:19:40;;;;;;;4.68;1.55;;;;;;;16.88;62.33;101594.41;5077367;28;20049;-62
2022/07/04 02:22:07;;;;;;;10.48;1.67;;;;;;;16.71;63.31;101602.84;5072850;28;20135;-62
2022/07/04 02:24:34;;;;;;;4.63;1.15;;;;;;;17.19;62.39;101594.06;5092815;28;20052;-62
2022/07/04 02:27:02;;;;;;;7.72;1.40;;;;;;;17.11;61.90;101600.50;5066683;28;20052;-62
2022/07/04 02:29:29;;;;;;;5.97;1.10;;;;;;;17.47;62.97;101591.66;5063724;28;20060;-62
2022/07/04 02:31:57;;;;;;;5.10;1.50;;;;;;;17.20;61.70;101589.31;5082965;28;20420;-62
2022/07/04 02:34:24;;;;;;;7.18;1.45;;;;;;;17.08;62.32;101597.59;5073664;28;20061;-62
2022/07/04 02:36:52;;;;;;;6.28;1.35;;;;;;;17.55;62.34;101591.59;5066864;28;20056;-62
2022/07/04 02:39:19;;;;;;;3.67;1.17;;;;;;;17.62;60.41;101600.22;5069258;28;20500;-62
2022/07/04 02:41:46;;;;;;;8.05;1.70;;;;;;;17.40;62.15;101594.91;5051351;28;20049;-62
2022/07/04 02:44:17;;;;;;;5.45;1.25;;;;;;;17.46;61.76;101589.97;5072396;28;20052;-63
2022/07/04 02:46:44;;;;;;;6.63;1.40;;;;;;;18.03;59.79;101593.00;5068083;28;20056;-62
2022/07/04 02:49:11;;;;;;;5.38;1.48;;;;;;;17.89;60.13;101594.09;5088006;28;20044;-62
2022/07/04 02:51:39;;;;;;;6.50;1.60;;;;;;;18.10;59.06;101596.84;5065373;28;20072;-62
2022/07/04 02:54:06;;;;;;;5.22;1.45;;;;;;;17.35;61.38;101599.88;5064075;28;20613;-62
2022/07/04 02:56:33;;;;;;;7.97;1.63;;;;;;;17.14;62.07;101601.81;5075656;28;20048;-62
2022/07/04 02:59:01;;;;;;;7.32;1.52;;;;;;;17.50;61.25;101610.47;5077031;28;20060;-62
2022/07/04 03:01:28;;;;;;;7.70;1.30;;;;;;;17.92;61.50;101607.34;5076544;28;20052;-62
2022/07/04 03:03:55;;;;;;;5.10;1.25;;;;;;;17.77;60.50;101602.38;5076833;28;20052;-62
2022/07/04 03:06:23;;;;;;;6.95;1.50;;;;;;;18.01;58.71;101606.47;5069438;28;20599;-62
2022/07/04 03:08:52;;;;;;;5.47;1.27;;;;;;;17.64;59.96;101606.25;5058393;28;20060;-62
2022/07/04 03:11:20;;;;;;;4.60;1.23;;;;;;;17.85;60.85;101607.06;5044571;28;20053;-62
2022/07/04 03:13:47;;;;;;;7.05;1.65;;;;;;;17.58;60.85;101610.41;5058754;28;20048;-62
2022/07/04 03:16:14;;;;;;;6.97;1.50;;;;;;;17.70;61.56;101616.06;5063209;28;20435;-62
2022/07/04 03:18:42;;;;;;;5.45;1.38;;;;;;;17.66;60.47;101617.06;5063545;28;20049;-62
2022/07/04 03:21:09;;;;;;;4.00;1.27;;;;;;;18.27;60.39;101616.19;5056044;28;20053;-62
2022/07/04 03:23:39;;;;;;;3.85;1.15;;;;;;;17.93;58.35;101620.13;5048452;28;20049;-62
2022/07/04 03:26:06;;;;;;;5.57;1.23;;;;;;;17.86;60.22;101622.66;5056019;28;20045;-62
2022/07/04 03:28:33;;;;;;;6.38;1.13;;;;;;;17.95;60.35;101617.81;5069604;28;20040;-62
2022/07/04 03:31:01;;;;;;;7.75;1.27;;;;;;;18.08;59.88;101617.88;5063992;28;20052;-62
2022/07/04 03:33:28;;;;;;;9.93;1.25;;;;;;;17.49;59.82;101628.31;5058189;28;20057;-63
2022/07/04 03:35:56;;;;;;;3.70;1.20;;;;;;;17.51;60.49;101626.00;5056729;28;20067;-62
2022/07/04 03:38:23;;;;;;;6.43;1.30;;;;;;;17.64;61.24;101622.97;5075424;28;20510;-62
2022/07/04 03:40:50;;;;;;;4.38;1.25;;;;;;;18.20;60.03;101615.13;5075766;28;20407;-62
2022/07/04 03:43:18;;;;;;;4.55;1.48;;;;;;;18.01;60.00;101618.41;5074916;28;20060;-62
2022/07/04 03:45:45;;;;;;;6.38;1.45;;;;;;;18.34;59.84;101613.66;5075679;28;20060;-63
2022/07/04 03:48:12;;;;;;;6.85;1.50;;;;;;;18.59;59.70;101617.38;5067207;28;20049;-67
2022/07/04 03:50:40;;;;;;;4.68;1.13;;;;;;;18.63;59.45;101612.72;5071547;28;20396;-65
2022/07/04 03:53:07;;;;;;;7.30;1.50;;;;;;;19.10;57.81;101611.16;5066064;28;20060;-64
2022/07/04 03:55:35;;;;;;;5.18;1.67;;;;;;;18.34;57.98;101610.88;5072814;28;20045;-62
2022/07/04 03:58:04;;;;;;;5.53;1.45;;;;;;;18.46;59.68;101601.78;5028101;28;20067;-62
2022/07/04 04:00:32;;;;;;;5.50;1.63;;;;;;;17.85;59.98;101607.06;5040380;28;20048;-62
2022/07/04 04:03:00;;;;;;;4.07;1.27;;;;;;;17.93;60.83;101613.72;5075633;28;20044;-64
2022/07/04 04:05:30;;;;;;;9.00;1.65;;;;;;;17.59;61.31;101612.03;5059071;28;20051;-64
2022/07/04 04:07:59;;;;;;;2.95;1.10;;;;;;;17.77;61.32;101612.72;5057478;28;20052;-62
2022/07/04 04:10:29;;;;;;;8.13;1.50;;;;;;;17.99;60.94;101624.31;5056465;28;20052;-63
2022/07/04 04:12:57;;;;;;;5.80;1.40;;;;;;;17.36;62.01;101623.78;5057714;28;20051;-62
2022/07/04 04:15:24;;;;;;;7.90;1.75;;;;;;;17.70;62.64;101621.63;5068986;28;20052;-62
2022/07/04 04:17:52;;;;;;;6.57;1.45;;;;;;;17.84;62.15;101624.13;5068955;28;20053;-62
2022/07/04 04:20:19;;;;;;;4.22;1.27;;;;;;;18.03;61.14;101632.03;5034163;28;20053;-65
2022/07/04 04:22:46;;;;;;;8.43;1.42;;;;;;;18.55;59.88;101635.97;5068403;28;20047;-65
2022/07/04 04:25:14;;;;;;;7.30;1.98;;;;;;;18.44;58.56;101635.59;5058331;28;20539;-66
2022/07/04 04:27:41;;;;;;;6.60;1.90;;;;;;;18.29;59.51;101638.19;5079410;28;20052;-64
2022/07/04 04:30:09;;;;;;;7.03;1.83;;;;;;;18.15;59.69;101646.81;5090240;28;20055;-65
2022/07/04 04:32:36;;;;;;;6.10;1.55;;;;;;;18.08;60.75;101643.75;5055728;28;20056;-64
2022/07/04 04:35:04;;;;;;;5.05;1.60;;;;;;;18.29;60.46;101647.34;5089696;28;20052;-65
2022/07/04 04:37:31;;;;;;;6.28;1.70;;;;;;;18.47;59.68;101632.09;5080550;28;20048;-65
2022/07/04 04:39:59;;;;;;;6.72;1.58;;;;;;;18.49;59.65;101634.56;5079494;28;20059;-65
2022/07/04 04:42:26;;;;;;;7.47;1.80;;;;;;;18.44;59.62;101635.59;5056862;28;20463;-65
2022/07/04 04:44:53;;;;;;;5.85;1.58;;;;;;;18.50;58.18;101636.16;5074931;28;20048;-64
2022/07/04 04:47:21;;;;;;;8.80;1.60;;;;;;;17.74;61.79;101636.50;5074683;28;20052;-64
2022/07/04 04:49:48;;;;;;;10.23;1.60;;;;;;;17.49;61.26;101645.84;5051494;28;20052;-62
2022/07/04 04:52:15;;;;;;;5.75;1.70;;;;;;;17.86;61.32;101635.75;5027104;28;20053;-62
2022/07/04 04:54:43;;;;;;;6.55;1.63;;;;;;;17.39;61.80;101643.44;5038090;28;20053;-65
2022/07/04 04:57:11;;;;;;;6.75;1.98;;;;;;;17.74;62.57;101638.47;5041201;28;20485;-65
2022/07/04 04:59:39;;;;;;;10.15;2.22;;;;;;;17.27;62.25;101640.56;5034898;28;20049;-65
2022/07/04 05:02:06;;;;;;;6.80;1.80;;;;;;;16.96;63.84;101653.16;5053489;28;20050;-64
2022/07/04 05:04:42;;;;;;;5.88;1.80;;;;;;;17.64;63.29;101636.91;5022498;28;20060;-62
2022/07/04 05:07:10;;;;;;;7.60;1.90;;;;;;;17.85;62.30;101643.28;5031231;28;20739;-65
2022/07/04 05:09:37;;;;;;;4.07;1.58;;;;;;;18.05;62.14;101640.84;5034629;28;20048;-66
2022/07/04 05:12:05;;;;;;;6.13;1.98;;;;;;;18.34;60.05;101635.97;5034205;28;20057;-65
2022/07/04 05:14:32;;;;;;;8.43;1.98;;;;;;;18.29;60.68;101640.97;5034666;28;20045;-67
2022/07/04 05:16:59;;;;;;;7.43;1.88;;;;;;;18.00;60.65;101633.50;5021416;28;20671;-63
2022/07/04 05:19:27;;;;;;;10.80;1.85;;;;;;;18.47;60.01;101639.66;5066124;28;20485;-65
2022/07/04 05:21:54;;;;;;;9.93;1.95;;;;;;;18.52;59.24;101639.44;5033996;28;20053;-65
2022/07/04 05:24:22;;;;;;;8.18;2.45;;;;;;;17.76;61.07;101644.53;5025450;28;20054;-65
2022/07/04 05:26:49;;;;;;;6.05;1.50;;;;;;;17.30;62.82;101648.22;5027823;28;20058;-65
2022/07/04 05:29:16;;;;;;;9.57;1.90;;;;;;;17.32;62.96;101642.31;5024699;28;20049;-65
2022/07/04 05:31:44;;;;;;;8.95;1.95;;;;;;;17.61;63.01;101639.53;5020837;28;20056;-65
2022/07/04 05:34:11;;;;;;;6.57;1.95;;;;;;;17.43;62.84;101643.59;5034640;28;20053;-64
2022/07/04 05:36:38;;;;;;;7.35;1.88;;;;;;;17.12;63.58;101635.53;5065909;28;20659;-65
2022/07/04 05:39:06;;;;;;;10.10;2.17;;;;;;;17.92;63.04;101640.00;5034568;28;20409;-65
2022/07/04 05:41:33;;;;;;;6.50;1.73;;;;;;;18.12;61.68;101644.72;5029821;28;20046;-65
2022/07/04 05:44:00;;;;;;;8.55;2.05;;;;;;;17.80;62.58;101646.28;5026358;28;20065;-66
2022/07/04 05:46:27;;;;;;;8.75;2.05;;;;;;;17.87;61.59;101643.78;5022133;28;20050;-66
2022/07/04 05:48:56;;;;;;;6.65;1.85;;;;;;;18.16;61.69;101651.25;5026684;28;20548;-67
2022/07/04 05:51:23;;;;;;;7.20;1.70;;;;;;;18.11;61.17;101645.88;5015524;28;20420;-66
2022/07/04 05:53:51;;;;;;;9.20;2.33;;;;;;;16.85;64.65;101661.03;5030963;28;20404;-65
2022/07/04 05:56:18;;;;;;;7.57;2.15;;;;;;;17.89;63.48;101649.84;5044413;28;20049;-65
2022/07/04 05:58:45;;;;;;;5.57;1.70;;;;;;;18.74;60.76;101644.63;5044535;28;20511;-66
2022/07/04 06:01:12;;;;;;;4.55;1.35;;;;;;;19.16;58.99;101646.06;5038081;28;20049;-66
2022/07/04 06:03:40;;;;;;;6.75;2.17;;;;;;;18.99;58.52;101646.28;5035213;28;20057;-65
2022/07/04 06:06:07;;;;;;;7.80;1.77;;;;;;;19.30;58.46;101659.69;5029029;28;20535;-66
2022/07/04 06:08:35;;;;;;;7.50;2.88;;;;;;;19.62;56.79;101647.56;5028920;28;20045;-64
2022/07/04 06:11:03;;;;;;;7.95;1.85;;;;;;;19.50;56.43;101648.41;5023241;28;20058;-65
2022/07/04 06:13:30;;;;;;;5.35;1.88;;;;;;;19.21;56.47;101647.81;5032331;28;20061;-65
2022/07/04 06:15:58;;;;;;;7.40;1.83;;;;;;;18.92;59.03;101655.22;5038901;28;20056;-65
2022/07/04 06:18:27;;;;;;;7.22;1.95;;;;;;;19.37;58.10;101652.38;5037660;28;20049;-66
2022/07/04 06:20:54;;;;;;;7.63;1.63;;;;;;;19.32;56.68;101647.03;5037109;28;20045;-65
2022/07/04 06:23:21;;;;;;;8.60;1.65;;;;;;;18.78;58.69;101651.94;5025093;28;20060;-65
2022/07/04 06:25:49;;;;;;;7.55;1.92;;;;;;;19.18;57.31;101649.31;5035316;28;20611;-65
2022/07/04 06:28:17;;;;;;;8.48;1.98;;;;;;;18.73;59.04;101654.16;5034468;28;20528;-66
2022/07/04 06:31:04;;;;;;;9.57;2.00;;;;;;;19.17;57.99;101653.28;5030738;28;20214;-66
2022/07/04 06:33:31;;;;;;;7.80;2.22;;;;;;;18.77;58.55;101655.91;5035245;28;20050;-68
2022/07/04 06:35:59;;;;;;;6.32;2.70;;;;;;;18.83;57.95;101662.06;5004079;28;20523;-70
2022/07/04 06:38:28;;;;;;;7.03;1.70;;;;;;;18.70;57.10;101654.84;5030065;28;20053;-70
2022/07/04 06:40:58;;;;;;;7.70;2.07;;;;;;;17.71;59.95;101651.09;5052036;28;20054;-70
2022/07/04 06:43:25;;;;;;;5.72;2.28;;;;;;;18.02;60.25;101652.69;5027411;28;20053;-68
2022/07/04 06:45:53;;;;;;;9.25;2.30;;;;;;;17.95;60.19;101651.28;5040525;28;20099;-68
2022/07/04 06:48:21;;;;;;;11.85;2.50;;;;;;;17.86;60.21;101658.06;5041447;28;20525;-68
2022/07/04 06:50:48;;;;;;;7.45;2.63;;;;;;;17.18;61.93;101661.22;5050766;28;20063;-69
2022/07/04 06:53:16;;;;;;;7.22;2.13;;;;;;;16.99;62.97;101663.59;5082026;28;20056;-70
2022/07/04 06:55:43;;;;;;;8.18;2.28;;;;;;;17.47;61.91;101666.88;5077890;28;20049;-69
2022/07/04 06:58:12;;;;;;;8.05;2.55;;;;;;;17.59;61.15;101669.75;5063810;28;20044;-68
2022/07/04 07:00:41;;;;;;;14.63;2.40;;;;;;;18.28;60.00;101670.81;5072489;28;20060;-69
2022/07/04 07:03:08;;;;;;;8.32;2.17;;;;;;;18.51;58.46;101669.34;5077306;28;20056;-69
2022/07/04 07:05:36;;;;;;;17.40;3.03;;;;;;;18.69;58.33;101673.56;5056159;28;20041;-71
2022/07/04 07:08:24;;;;;;;6.63;1.70;;;;;;;18.73;57.33;101674.50;5055810;28;20052;-70
2022/07/04 07:10:51;;;;;;;6.50;1.90;;;;;;;19.19;56.82;101678.06;5082413;28;20051;-70
2022/07/04 07:13:18;;;;;;;12.75;2.13;;;;;;;19.26;55.26;101672.72;5084428;28;21434;-72
2022/07/04 07:15:46;;;;;;;8.43;2.10;;;;;;;18.34;57.82;101679.81;5077177;28;20407;-71
2022/07/04 07:18:13;;;;;;;13.65;2.40;;;;;;;18.56;57.78;101677.47;5064486;28;20053;-70
2022/07/04 07:20:40;;;;;;;13.20;2.10;;;;;;;18.72;57.41;101672.06;5069963;28;20059;-72
2022/07/04 07:23:08;;;;;;;8.27;1.95;;;;;;;18.93;55.88;101676.41;5074196;28;20049;-71
2022/07/04 07:25:35;;;;;;;6.10;1.80;;;;;;;18.41;57.34;101678.09;5076209;28;20052;-70
2022/07/04 07:28:02;;;;;;;7.57;2.05;;;;;;;18.67;58.36;101684.25;5079126;28;20514;-71
2022/07/04 07:30:30;;;;;;;7.20;1.83;;;;;;;19.83;55.58;101679.00;5060389;28;20055;-75
2022/07/04 07:32:57;;;;;;;5.70;2.15;;;;;;;20.36;53.68;101667.44;5084091;28;20048;-70
2022/07/04 07:35:24;;;;;;;5.28;1.55;;;;;;;20.03;52.81;101672.44;5073856;28;20056;-70
2022/07/04 07:37:52;;;;;;;6.75;2.00;;;;;;;20.06;52.23;101678.13;5072130;28;20053;-71
2022/07/04 07:40:19;;;;;;;6.05;1.52;;;;;;;20.38;51.81;101662.28;5063221;28;20044;-70
2022/07/04 07:42:47;;;;;;;9.10;1.60;;;;;;;21.11;50.19;101662.72;5082671;28;20075;-70
2022/07/04 07:45:14;;;;;;;9.48;1.83;;;;;;;21.54;48.32;101659.78;5057469;28;20041;-71
2022/07/04 07:47:42;;;;;;;6.05;1.80;;;;;;;21.67;47.85;101650.06;5069304;28;20055;-70
2022/07/04 07:50:09;;;;;;;11.77;2.15;;;;;;;21.13;47.67;101658.38;5073575;28;20040;-71
2022/07/04 07:52:38;;;;;;;13.40;2.25;;;;;;;21.19;49.20;101665.34;5073107;28;20053;-70
2022/07/04 07:55:06;;;;;;;7.18;1.90;;;;;;;20.99;48.39;101660.00;5078992;28;20055;-70
2022/07/04 07:57:34;;;;;;;10.05;1.90;;;;;;;22.12;46.20;101643.88;5086330;28;20058;-71
2022/07/04 08:00:01;;;;;;;12.13;1.65;;;;;;;;;;5083757;28;20373;-71
2022/07/04 08:05:24;;;;;;;8.73;1.73;;;;;;;20.50;49.19;101651.06;5079026;28;20056;-70
2022/07/04 08:07:52;;;;;;;8.20;1.83;;;;;;;20.99;47.55;101652.41;5062228;28;20040;-71
2022/07/04 08:10:19;;;;;;;6.63;1.48;;;;;;;20.92;47.87;101651.41;5083432;28;20418;-71
2022/07/04 08:12:46;;;;;;;8.30;1.65;;;;;;;20.96;47.15;101655.91;5065528;28;20083;-71
2022/07/04 08:15:14;;;;;;;11.25;2.00;;;;;;;20.48;49.21;101652.56;5088001;28;20051;-70
2022/07/04 08:17:41;;;;;;;5.47;1.80;;;;;;;20.76;48.14;101648.56;5085339;28;20052;-70
2022/07/04 08:20:10;;;;;;;8.40;1.60;;;;;;;21.32;46.93;101649.25;5070851;28;20048;-72
2022/07/04 08:22:38;;;;;;;5.68;1.60;;;;;;;21.09;47.32;101651.88;5082633;28;20052;-70
2022/07/04 08:25:05;;;;;;;7.38;1.50;;;;;;;20.80;46.75;101643.06;5063602;28;20061;-70
2022/07/04 08:27:32;;;;;;;5.82;1.25;;;;;;;20.20;48.68;101648.97;5068260;28;20053;-72
2022/07/04 08:30:00;;;;;;;13.90;1.73;;;;;;;21.24;47.62;101642.66;5075750;28;20045;-71
2022/07/04 08:32:28;;;;;;;23.85;2.53;;;;;;;21.88;45.64;101641.38;5086067;28;20048;-70
2022/07/04 08:34:55;;;;;;;13.70;1.80;;;;;;;22.13;43.84;101635.09;5073621;28;20520;-70
2022/07/04 08:37:23;;;;;;;7.55;1.55;;;;;;;22.05;44.72;101636.13;5069198;28;20045;-70
2022/07/04 08:39:51;;;;;;;17.00;2.22;;;;;;;21.85;44.56;101631.69;5065844;28;20049;-69
2022/07/04 08:42:20;;;;;;;7.13;1.52;;;;;;;22.03;45.01;101630.09;5071567;28;20048;-70
2022/07/04 08:44:50;;;;;;;8.45;1.60;;;;;;;22.65;44.06;101620.50;5057613;28;20415;-71
2022/07/04 08:47:20;;;;;;;16.27;1.90;;;;;;;22.49;43.63;101630.19;5068895;28;20052;-70
2022/07/04 08:49:59;;;;;;;17.30;1.90;;;;;;;22.61;43.07;101621.63;5081519;28;20048;-71
2022/07/04 08:52:40;;;;;;;10.02;1.88;;;;;;;22.57;42.39;101620.75;5076726;28;20060;-72
2022/07/04 09:00:43;;;;;;;17.85;2.55;;;;;;;22.56;43.03;101619.13;5068215;28;20041;-71
2022/07/04 09:03:11;;;;;;;6.30;1.30;;;;;;;21.45;44.74;101625.53;5070241;28;20056;-69
2022/07/04 09:05:39;;;;;;;4.35;1.30;;;;;;;20.60;46.01;101622.53;5056144;28;20056;-71
2022/07/04 09:08:06;;;;;;;6.55;1.70;;;;;;;20.48;46.35;101616.19;5059031;28;20059;-70
2022/07/04 09:10:34;;;;;;;8.70;1.48;;;;;;;20.63;46.22;101619.00;5071369;28;20040;-70
2022/07/04 09:13:03;;;;;;;9.70;1.75;;;;;;;21.11;45.95;101610.28;5073502;28;20067;-70
2022/07/04 09:15:42;;;;;;;6.05;1.77;;;;;;;21.23;44.29;101609.38;5051604;28;20063;-71
2022/07/04 09:18:25;;;;;;;11.07;1.50;;;;;;;21.19;46.04;101612.09;5078162;28;20057;-71
2022/07/04 09:20:54;;;;;;;10.20;1.50;;;;;;;21.15;44.62;101611.19;5065618;28;20052;-72
2022/07/04 09:23:26;;;;;;;4.22;1.30;;;;;;;20.83;44.76;101614.34;5083111;28;20052;-71
2022/07/04 09:26:09;;;;;;;9.63;1.45;;;;;;;21.19;44.33;101626.13;5078269;28;20068;-71
2022/07/04 09:28:38;;;;;;;8.00;1.23;;;;;;;21.50;42.95;101610.41;5090812;28;20182;-71
2022/07/04 09:31:15;;;;;;;6.27;1.27;;;;;;;21.33;43.47;101608.81;5076398;28;20051;-71
2022/07/04 09:33:47;;;;;;;6.80;1.55;;;;;;;21.85;43.97;101603.63;5071910;28;20412;-71
2022/07/04 09:36:16;;;;;;;5.45;1.58;;;;;;;22.16;42.51;101597.03;5055121;28;20098;-70
2022/07/04 09:38:44;;;;;;;6.68;1.30;;;;;;;22.44;42.36;101599.63;5081486;28;20057;-72
2022/07/04 09:41:29;;;;;;;2.42;0.95;;;;;;;22.30;40.74;101598.16;5077219;28;20052;-70
2022/07/04 09:44:04;;;;;;;5.85;1.17;;;;;;;22.34;41.98;101599.03;5074591;28;20059;-71
2022/07/04 09:46:33;;;;;;;5.10;1.23;;;;;;;21.75;42.36;101601.38;5087866;28;20614;-72
2022/07/04 09:49:00;;;;;;;7.47;1.52;;;;;;;20.60;44.79;101602.13;5063350;28;20056;-70
2022/07/04 09:51:42;;;;;;;4.65;1.20;;;;;;;20.65;44.49;101605.47;5064025;28;20048;-70
2022/07/04 09:54:20;;;;;;;6.45;1.40;;;;;;;20.79;44.07;101610.63;5061866;28;20055;-70
2022/07/04 09:56:51;;;;;;;8.65;1.30;;;;;;;21.01;43.85;101607.22;5080198;28;20384;-71
2022/07/04 09:59:19;;;;;;;7.90;1.88;;;;;;;20.77;43.84;101610.16;5067317;28;20052;-69
2022/07/04 10:01:47;;;;;;;7.32;1.20;;;;;;;20.89;43.23;101608.09;5074114;28;20053;-70
2022/07/04 10:04:14;;;;;;;6.88;1.17;;;;;;;20.68;43.56;101601.94;5058332;28;20059;-71
2022/07/04 10:06:44;;;;;;;6.18;1.20;;;;;;;20.79;43.68;101605.03;5059963;28;20052;-71
2022/07/04 10:09:13;;;;;;;4.87;1.97;;;;;;;21.02;43.29;101606.88;5051662;28;20593;-70
2022/07/04 10:11:43;;;;;;;5.82;1.80;;;;;;;21.47;42.22;101606.34;5088907;28;20681;-68
2022/07/04 10:14:12;;;;;;;4.53;1.40;;;;;;;21.81;41.97;101594.31;5083008;28;20391;-73
2022/07/04 10:16:40;;;;;;;3.97;1.40;;;;;;;21.36;40.61;101596.09;5078313;28;20059;-70
2022/07/04 10:19:09;;;;;;;15.93;4.95;;;;;;;21.43;40.96;101599.03;5069649;28;20044;-69
2022/07/04 10:21:37;;;;;;;10.15;1.88;;;;;;;21.73;40.35;101595.31;5077048;28;20039;-69
2022/07/04 10:24:04;;;;;;;9.02;1.75;;;;;;;21.80;39.85;101589.91;5075745;28;20048;-75
2022/07/04 10:26:32;;;;;;;12.23;2.22;;;;;;;21.90;40.01;101592.13;5088372;28;20052;-69
2022/07/04 10:28:59;;;;;;;5.80;1.92;;;;;;;22.03;40.95;101587.16;5052770;28;20052;-71
2022/07/04 10:31:28;;;;;;;10.50;1.77;;;;;;;;;;5061267;28;20041;-69
2022/07/04 10:33:59;;;;;;;7.20;1.10;;;;;;;21.88;40.69;101586.06;5056227;28;20056;-68
2022/07/04 10:36:29;;;;;;;37.67;3.22;;;;;;;21.87;39.35;101586.44;5076720;28;20052;-69
2022/07/04 10:39:01;;;;;;;8.38;1.30;;;;;;;21.57;41.14;101586.16;5065581;28;20056;-69
2022/07/04 10:41:30;;;;;;;6.63;1.35;;;;;;;21.90;41.46;101592.13;5054215;28;20049;-68
2022/07/04 10:44:13;;;;;;;3.83;1.08;;;;;;;21.60;39.97;101596.63;5049923;28;20049;-68
2022/07/04 10:46:46;;;;;;;6.30;1.10;;;;;;;21.68;39.65;101592.81;5056803;28;20048;-68
2022/07/04 10:49:13;;;;;;;6.70;1.00;;;;;;;21.75;39.56;101592.97;5077302;28;20048;-72
2022/07/04 10:51:48;;;;;;;5.38;1.30;;;;;;;22.23;39.32;101588.78;5076540;28;20051;-69
2022/07/04 10:54:38;;;;;;;7.97;1.40;;;;;;;22.54;39.41;101584.97;5085219;28;20052;-69
2022/07/04 10:57:22;;;;;;;5.22;1.67;;;;;;;22.42;38.29;101585.94;5040612;28;20045;-68
2022/07/04 10:59:56;;;;;;;8.38;1.60;;;;;;;21.93;39.39;101582.16;5068716;28;20408;-69
2022/07/04 11:02:29;;;;;;;4.55;1.17;;;;;;;21.81;39.09;101579.50;5077796;28;20039;-69
2022/07/04 11:04:58;;;;;;;5.35;1.38;;;;;;;22.09;40.04;101585.69;5061525;28;20653;-68
2022/07/04 11:07:34;;;;;;;9.70;1.47;;;;;;;22.57;39.11;101576.63;5065705;28;20063;-69
2022/07/04 11:12:53;;;;;;;5.25;1.85;;;;;;;22.08;38.72;101575.66;5070115;28;20048;-69
2022/07/04 11:15:32;;;;;;;6.53;2.20;;;;;;;21.97;39.27;101571.81;5064103;28;20060;-69
2022/07/04 11:18:03;;;;;;;;;;;;;;;21.94;38.70;101578.16;5060847;28;20415;-69
2022/07/04 11:20:31;;;;;;;;;;;;;;;22.08;39.32;101578.44;5061163;28;19932;-69
2022/07/04 11:23:09;;;;;;;11.75;4.47;;;;;;;22.03;38.64;101573.16;5059290;28;19920;-69
2022/07/04 11:25:38;;;;;;;5.10;1.83;;;;;;;22.11;39.06;101569.28;5072269;28;20967;-68
2022/07/04 11:28:27;;;;;;;4.97;1.67;;;;;;;21.85;39.40;101577.56;5076136;28;20055;-69
2022/07/04 11:31:12;;;;;;;3.42;1.25;;;;;;;22.01;39.86;101569.88;5066959;28;20051;-70
2022/07/04 11:33:41;;;;;;;4.55;1.17;;;;;;;21.90;40.21;101568.84;5072417;28;20411;-68
2022/07/04 11:36:17;;;;;;;7.18;1.70;;;;;;;22.34;39.09;101562.53;5068659;28;20043;-69
2022/07/04 11:38:55;;;;;;;7.82;1.45;;;;;;;22.09;38.81;101557.63;5073796;28;20605;-70
2022/07/04 11:47:21;;;;;;;5.45;1.40;;;;;;;22.23;39.12;101564.31;5074035;28;20056;-70
2022/07/04 11:49:56;;;;;;;4.80;1.25;;;;;;;22.35;38.65;101557.75;5065936;28;20049;-68
2022/07/04 11:52:29;;;;;;;6.43;1.13;;;;;;;21.99;38.61;101555.41;5072169;28;20037;-69
2022/07/04 11:55:17;;;;;;;4.55;1.42;;;;;;;22.14;39.05;101552.50;5061452;28;20053;-69